createdAt,value
2023-04-12T00:01:00.337Z,1.20
2023-04-12T00:03:28.503Z,1.10
2023-04-12T00:06:33.227Z,1.07
2023-04-12T00:09:03.120Z,0.90
2023-04-12T00:11:36.686Z,1.10
2023-04-12T00:14:04.757Z,1.00
2023-04-12T00:16:33.451Z,1.20
2023-04-12T00:19:04.492Z,1.00
2023-04-12T00:21:33.329Z,1.10
2023-04-12T00:24:02.782Z,1.00
2023-04-12T00:26:31.666Z,1.10
2023-04-12T00:29:09.035Z,1.20
2023-04-12T00:31:37.868Z,1.30
2023-04-12T00:34:09.454Z,1.10
2023-04-12T00:36:37.838Z,1.07
2023-04-12T00:39:05.231Z,1.20
2023-04-12T00:41:32.648Z,1.20
2023-04-12T00:44:10.882Z,1.10
2023-04-12T00:46:39.807Z,1.20
2023-04-12T00:49:17.586Z,1.00
2023-04-12T00:51:46.673Z,1.20
2023-04-12T00:54:18.679Z,1.20
2023-04-12T00:56:50.274Z,1.10
2023-04-12T00:59:18.778Z,1.30
2023-04-12T01:01:48.863Z,1.30
2023-04-12T01:04:24.094Z,1.40
2023-04-12T01:07:16.172Z,1.40
2023-04-12T01:10:05.863Z,1.30
2023-04-12T01:13:16.458Z,1.23
2023-04-12T01:16:28.012Z,1.47
2023-04-12T01:19:05.092Z,1.23
2023-04-12T01:22:25.852Z,1.50
2023-04-12T01:25:32.181Z,1.20
2023-04-12T01:28:26.360Z,1.30
2023-04-12T01:30:56.110Z,1.10
2023-04-12T01:33:34.546Z,1.27
2023-04-12T01:36:11.535Z,1.10
2023-04-12T01:38:44.481Z,1.40
2023-04-12T01:41:16.105Z,1.20
2023-04-12T01:43:49.349Z,1.33
2023-04-12T01:46:23.328Z,1.20
2023-04-12T01:48:54.423Z,1.20
2023-04-12T01:51:50.123Z,1.30
2023-04-12T01:54:27.128Z,1.20
2023-04-12T01:56:59.184Z,1.47
2023-04-12T01:59:32.321Z,1.30
2023-04-12T02:01:59.535Z,1.40
2023-04-12T02:04:30.974Z,1.13
2023-04-12T02:06:58.203Z,1.57
2023-04-12T02:09:30.345Z,1.50
2023-04-12T02:12:02.389Z,1.50
2023-04-12T02:14:34.057Z,1.63
2023-04-12T02:17:08.510Z,1.80
2023-04-12T02:19:37.935Z,1.70
2023-04-12T02:22:11.547Z,1.70
2023-04-12T02:24:39.254Z,1.83
2023-04-12T02:27:09.110Z,1.60
2023-04-12T02:29:37.681Z,1.73
2023-04-12T02:32:09.945Z,1.70
2023-04-12T02:34:40.774Z,1.70
2023-04-12T02:37:14.183Z,1.70
2023-04-12T02:39:44.588Z,1.77
2023-04-12T02:42:14.548Z,2.13
2023-04-12T02:44:51.827Z,1.93
2023-04-12T02:47:21.826Z,1.93
2023-04-12T02:49:48.996Z,1.70
2023-04-12T02:52:18.409Z,1.90
2023-04-12T02:54:47.861Z,1.80
2023-04-12T02:57:19.166Z,1.70
2023-04-12T02:59:49.264Z,2.10
2023-04-12T03:02:24.809Z,2.00
2023-04-12T03:04:52.160Z,1.90
2023-04-12T03:07:22.498Z,2.10
2023-04-12T03:09:59.650Z,1.70
2023-04-12T03:12:30.165Z,1.73
2023-04-12T03:14:58.457Z,1.83
2023-04-12T03:17:25.690Z,1.60
2023-04-12T03:19:56.461Z,1.83
2023-04-12T03:22:26.422Z,2.00
2023-04-12T03:24:58.418Z,1.83
2023-04-12T03:27:28.953Z,2.13
2023-04-12T03:30:06.165Z,2.13
2023-04-12T03:32:36.348Z,1.77
2023-04-12T03:35:05.193Z,2.10
2023-04-12T03:37:34.178Z,1.90
2023-04-12T03:40:01.846Z,2.03
2023-04-12T03:42:33.768Z,1.73
2023-04-12T03:45:04.734Z,1.63
2023-04-12T03:47:33.362Z,1.63
2023-04-12T03:50:12.644Z,1.50
2023-04-12T03:52:42.221Z,1.77
2023-04-12T03:55:09.881Z,1.60
2023-04-12T03:57:40.517Z,1.60
2023-04-12T04:00:09.360Z,1.43
2023-04-12T04:02:38.945Z,1.90
2023-04-12T04:05:09.083Z,2.27
2023-04-12T04:07:39.544Z,2.80
2023-04-12T04:10:10.130Z,2.90
2023-04-12T04:12:39.033Z,2.73
2023-04-12T04:15:12.783Z,3.13
2023-04-12T04:17:44.455Z,3.17
2023-04-12T04:20:16.941Z,3.20
2023-04-12T04:22:48.506Z,3.23
2023-04-12T04:25:17.334Z,3.63
2023-04-12T04:27:52.231Z,3.37
2023-04-12T04:30:19.859Z,3.30
2023-04-12T04:32:57.043Z,3.67
2023-04-12T04:35:26.633Z,3.47
2023-04-12T04:37:53.987Z,3.30
2023-04-12T04:40:24.633Z,3.43
2023-04-12T04:42:58.683Z,3.17
2023-04-12T04:45:27.223Z,2.77
2023-04-12T04:47:58.012Z,3.20
2023-04-12T04:50:29.494Z,3.00
2023-04-12T04:52:59.807Z,2.80
2023-04-12T04:55:30.791Z,3.43
2023-04-12T04:57:59.272Z,3.37
2023-04-12T05:00:26.874Z,3.27
2023-04-12T05:03:05.741Z,2.83
2023-04-12T05:05:34.442Z,2.73
2023-04-12T05:08:04.801Z,2.87
2023-04-12T05:10:33.021Z,3.30
2023-04-12T05:13:01.964Z,2.80
2023-04-12T05:15:37.138Z,2.60
2023-04-12T05:18:06.829Z,3.33
2023-04-12T05:20:40.316Z,3.97
2023-04-12T05:23:09.675Z,4.93
2023-04-12T05:25:37.438Z,6.63
2023-04-12T05:28:14.980Z,6.30
2023-04-12T05:30:42.426Z,3.25
2023-04-12T05:33:12.422Z,3.08
2023-04-12T05:35:42.939Z,2.50
2023-04-12T05:38:16.264Z,2.20
2023-04-12T05:40:45.438Z,2.10
2023-04-12T05:43:14.787Z,2.00
2023-04-12T05:45:51.509Z,2.60
2023-04-12T05:48:21.301Z,2.13
2023-04-12T05:50:53.886Z,2.33
2023-04-12T05:53:31.037Z,2.03
2023-04-12T05:55:59.773Z,2.10
2023-04-12T05:58:29.187Z,1.90
2023-04-12T06:00:57.610Z,1.90
2023-04-12T06:03:33.000Z,1.70
2023-04-12T06:06:04.106Z,1.80
2023-04-12T06:08:34.496Z,1.70
2023-04-12T06:11:14.301Z,1.73
2023-04-12T06:13:44.736Z,1.65
2023-04-12T06:16:14.611Z,1.63
2023-04-12T06:18:47.390Z,1.60
2023-04-12T06:21:17.700Z,1.67
2023-04-12T06:23:46.324Z,1.90
2023-04-12T06:26:14.481Z,2.72
2023-04-12T06:28:41.872Z,3.22
2023-04-12T06:31:18.989Z,1.83
2023-04-12T06:33:58.577Z,1.30
2023-04-12T06:36:25.886Z,1.65
2023-04-12T06:38:55.769Z,1.50
2023-04-12T06:41:25.142Z,1.67
2023-04-12T06:44:02.154Z,1.70
2023-04-12T06:46:32.357Z,1.85
2023-04-12T06:49:01.358Z,1.80
2023-04-12T06:51:30.540Z,1.70
2023-04-12T06:54:02.619Z,1.50
2023-04-12T06:56:31.212Z,1.70
2023-04-12T06:59:02.465Z,1.45
2023-04-12T07:01:32.504Z,1.80
2023-04-12T07:04:02.090Z,1.40
2023-04-12T07:06:30.582Z,1.50
2023-04-12T07:09:00.826Z,1.70
2023-04-12T07:11:28.839Z,1.75
2023-04-12T07:13:59.383Z,1.70
2023-04-12T07:16:30.378Z,1.52
2023-04-12T07:19:02.735Z,1.70
2023-04-12T07:21:32.293Z,1.70
2023-04-12T07:23:59.305Z,1.27
2023-04-12T07:26:31.536Z,1.70
2023-04-12T07:29:04.371Z,1.52
2023-04-12T07:31:38.735Z,1.50
2023-04-12T07:34:09.288Z,1.50
2023-04-12T07:36:38.437Z,1.55
2023-04-12T07:39:07.305Z,1.30
2023-04-12T07:41:34.384Z,1.60
2023-04-12T07:44:01.541Z,1.70
2023-04-12T07:46:30.109Z,1.67
2023-04-12T07:48:58.580Z,1.63
2023-04-12T07:51:35.543Z,1.58
2023-04-12T07:54:06.462Z,1.58
2023-04-12T07:56:36.707Z,1.60
2023-04-12T07:59:05.245Z,1.50
2023-04-12T08:01:33.745Z,1.60
2023-04-12T08:04:02.537Z,1.48
2023-04-12T08:06:35.216Z,1.58
2023-04-12T08:09:05.125Z,1.70
2023-04-12T08:11:36.337Z,1.80
2023-04-12T08:14:04.021Z,1.60
2023-04-12T08:16:41.156Z,1.90
2023-04-12T08:19:10.350Z,1.90
2023-04-12T08:21:41.026Z,2.07
2023-04-12T08:24:09.656Z,2.00
2023-04-12T08:26:39.207Z,2.27
2023-04-12T08:29:08.921Z,2.17
2023-04-12T08:31:37.963Z,2.53
2023-04-12T08:34:07.061Z,2.40
2023-04-12T08:36:36.654Z,2.50
2023-04-12T08:39:06.381Z,2.60
2023-04-12T08:41:43.618Z,2.20
2023-04-12T08:44:13.137Z,2.67
2023-04-12T08:46:41.520Z,2.30
2023-04-12T08:49:08.574Z,2.70
2023-04-12T08:51:38.668Z,1.83
2023-04-12T08:54:08.599Z,2.70
2023-04-12T08:56:40.776Z,2.43
2023-04-12T08:59:16.214Z,2.23
2023-04-12T09:01:45.412Z,1.90
2023-04-12T09:04:14.813Z,2.13
2023-04-12T09:06:45.870Z,1.60
2023-04-12T09:09:15.389Z,1.98
2023-04-12T09:11:46.375Z,1.75
2023-04-12T09:14:28.826Z,2.20
2023-04-12T09:17:06.090Z,1.50
2023-04-12T09:19:40.929Z,1.90
2023-04-12T09:22:09.552Z,2.00
2023-04-12T09:24:56.459Z,1.95
2023-04-12T09:27:28.874Z,1.83
2023-04-12T09:30:17.060Z,2.00
2023-04-12T09:32:49.939Z,1.80
2023-04-12T09:35:20.397Z,1.60
2023-04-12T09:38:01.106Z,1.70
2023-04-12T09:40:40.769Z,1.90
2023-04-12T09:43:13.207Z,1.90
2023-04-12T09:45:44.902Z,1.67
2023-04-12T09:48:27.041Z,1.55
2023-04-12T09:51:02.771Z,1.60
2023-04-12T09:53:34.087Z,1.40
2023-04-12T09:56:06.438Z,1.33
2023-04-12T09:58:39.002Z,1.52
2023-04-12T10:01:15.856Z,1.55
2023-04-12T10:03:49.209Z,1.75
2023-04-12T10:06:19.208Z,1.40
2023-04-12T10:08:47.174Z,1.80
2023-04-12T10:11:20.883Z,1.70
2023-04-12T10:13:50.951Z,1.77
2023-04-12T10:16:21.235Z,1.75
2023-04-12T10:18:49.264Z,1.80
2023-04-12T10:21:17.981Z,1.85
2023-04-12T10:23:48.691Z,2.60
2023-04-12T10:26:19.631Z,8.73
2023-04-12T10:29:29.021Z,4.43
2023-04-12T10:31:59.763Z,3.75
2023-04-12T10:34:31.873Z,3.60
2023-04-12T10:37:23.871Z,2.00
2023-04-12T10:40:05.424Z,2.10
2023-04-12T10:42:35.826Z,2.20
2023-04-12T10:45:37.911Z,1.73
2023-04-12T10:48:07.166Z,2.00
2023-04-12T10:50:36.299Z,2.63
2023-04-12T10:53:32.597Z,2.13
2023-04-12T10:56:06.837Z,2.22
2023-04-12T10:59:08.462Z,2.80
2023-04-12T11:01:46.171Z,2.75
2023-04-12T11:04:26.819Z,2.20
2023-04-12T11:07:08.459Z,2.63
2023-04-12T11:09:49.190Z,2.42
2023-04-12T11:15:19.942Z,2.00
2023-04-12T11:18:00.373Z,2.25
2023-04-12T11:20:32.400Z,2.30
2023-04-12T11:23:03.456Z,2.50
2023-04-12T11:25:32.587Z,1.88
2023-04-12T11:28:08.943Z,2.10
2023-04-12T11:30:59.322Z,2.63
2023-04-12T11:33:40.301Z,2.85
2023-04-12T11:36:13.592Z,2.50
2023-04-12T11:38:44.366Z,2.40
2023-04-12T11:41:15.182Z,2.47
2023-04-12T11:43:45.656Z,2.63
2023-04-12T11:46:16.556Z,2.20
2023-04-12T11:48:47.262Z,2.20
2023-04-12T11:51:32.143Z,2.10
2023-04-12T11:54:08.542Z,2.25
2023-04-12T11:56:47.421Z,2.50
2023-04-12T11:59:17.718Z,2.65
2023-04-12T12:01:52.624Z,2.10
2023-04-12T12:04:22.487Z,2.20
2023-04-12T12:06:52.327Z,2.55
2023-04-12T12:09:31.625Z,2.20
2023-04-12T12:12:01.911Z,2.20
2023-04-12T12:14:37.868Z,2.22
2023-04-12T12:17:19.992Z,2.30
2023-04-12T12:19:48.892Z,2.15
2023-04-12T12:22:24.884Z,2.53
2023-04-12T12:25:05.629Z,2.30
2023-04-12T12:27:41.393Z,2.70
2023-04-12T12:30:12.598Z,2.40
2023-04-12T12:32:41.856Z,2.30
2023-04-12T12:35:16.866Z,2.50
2023-04-12T12:37:59.511Z,2.05
2023-04-12T12:40:33.813Z,2.35
2023-04-12T12:43:03.335Z,2.10
2023-04-12T12:45:34.381Z,2.35
2023-04-12T12:48:06.742Z,2.10
2023-04-12T12:50:36.821Z,2.15
2023-04-12T12:53:10.324Z,2.58
2023-04-12T12:55:37.887Z,2.13
2023-04-12T12:58:07.270Z,2.28
2023-04-12T13:00:38.058Z,2.10
2023-04-12T13:03:07.688Z,2.60
2023-04-12T13:05:36.277Z,2.30
2023-04-12T13:08:06.823Z,2.17
2023-04-12T13:10:36.326Z,2.30
2023-04-12T13:13:04.697Z,2.50
2023-04-12T13:15:33.014Z,2.40
2023-04-12T13:18:00.578Z,2.50
2023-04-12T13:20:29.297Z,2.20
2023-04-12T13:22:57.784Z,2.33
2023-04-12T13:25:26.619Z,2.30
2023-04-12T13:27:55.557Z,2.75
2023-04-12T13:30:35.466Z,2.38
2023-04-12T13:33:02.809Z,2.30
2023-04-12T13:35:41.520Z,1.98
2023-04-12T13:38:11.341Z,2.35
2023-04-12T13:40:39.816Z,2.60
2023-04-12T13:43:12.216Z,2.20
2023-04-12T13:45:44.486Z,2.45
2023-04-12T13:48:14.660Z,2.58
2023-04-12T13:50:43.655Z,2.30
2023-04-12T13:53:11.913Z,2.10
2023-04-12T13:55:41.340Z,2.50
2023-04-12T13:58:11.015Z,2.00
2023-04-12T14:00:39.287Z,2.25
2023-04-12T14:03:08.642Z,2.00
2023-04-12T14:05:39.726Z,2.47
2023-04-12T14:08:10.518Z,2.53
2023-04-12T14:10:39.717Z,2.40
2023-04-12T14:13:06.685Z,2.60
2023-04-12T14:15:35.478Z,2.50
2023-04-12T14:18:04.207Z,2.60
2023-04-12T14:20:43.151Z,2.47
2023-04-12T14:23:19.428Z,2.65
2023-04-12T14:25:48.176Z,2.25
2023-04-12T14:28:17.886Z,2.58
2023-04-12T14:30:57.171Z,2.58
2023-04-12T14:33:34.720Z,2.70
2023-04-12T14:36:05.333Z,2.72
2023-04-12T14:38:34.028Z,2.45
2023-04-12T14:41:08.452Z,2.10
2023-04-12T14:43:38.330Z,2.53
2023-04-12T14:46:06.983Z,2.67
2023-04-12T14:48:37.161Z,2.60
2023-04-12T14:51:05.933Z,2.20
2023-04-12T14:53:33.783Z,2.90
2023-04-12T14:56:04.233Z,2.30
2023-04-12T14:58:35.019Z,2.50
2023-04-12T15:01:03.939Z,2.55
2023-04-12T15:03:36.288Z,2.53
2023-04-12T15:06:10.023Z,2.47
2023-04-12T15:08:46.273Z,2.80
2023-04-12T15:11:14.828Z,2.38
2023-04-12T15:13:52.264Z,2.33
2023-04-12T15:16:20.986Z,3.13
2023-04-12T15:18:52.525Z,2.75
2023-04-12T15:21:21.835Z,2.58
2023-04-12T15:23:49.561Z,2.53
2023-04-12T15:26:16.937Z,2.40
2023-04-12T15:28:46.821Z,2.70
2023-04-12T15:31:21.775Z,2.25
2023-04-12T15:33:51.470Z,2.50
2023-04-12T15:36:21.886Z,2.85
2023-04-12T15:38:52.863Z,2.28
2023-04-12T15:41:34.379Z,2.70
2023-04-12T15:44:04.886Z,2.72
2023-04-12T15:46:34.944Z,2.80
2023-04-12T15:49:03.941Z,2.83
2023-04-12T15:51:32.624Z,2.85
2023-04-12T15:54:02.033Z,2.75
2023-04-12T15:56:30.461Z,2.78
2023-04-12T15:59:00.637Z,3.10
2023-04-12T16:01:29.490Z,2.38
2023-04-12T16:04:01.298Z,2.70
2023-04-12T16:06:32.163Z,3.10
2023-04-12T16:08:59.490Z,2.67
2023-04-12T16:11:27.740Z,2.75
2023-04-12T16:13:56.810Z,2.55
2023-04-12T16:16:27.140Z,2.22
2023-04-12T16:18:58.050Z,2.97
2023-04-12T16:21:28.560Z,2.42
2023-04-12T16:23:55.560Z,2.10
2023-04-12T16:26:28.265Z,2.42
2023-04-12T16:29:00.087Z,2.60
2023-04-12T16:31:30.672Z,2.35
2023-04-12T16:34:08.407Z,2.70
2023-04-12T16:36:38.193Z,2.85
2023-04-12T16:39:10.064Z,2.42
2023-04-12T16:41:38.624Z,2.50
2023-04-12T16:44:07.161Z,2.17
2023-04-12T16:46:35.508Z,2.90
2023-04-12T16:49:06.085Z,3.13
2023-04-12T16:51:36.974Z,3.20
2023-04-12T16:54:05.139Z,3.25
2023-04-12T16:56:33.668Z,3.00
2023-04-12T16:59:03.104Z,3.20
2023-04-12T17:01:31.466Z,2.80
2023-04-12T17:04:01.837Z,3.07
2023-04-12T17:06:34.442Z,3.70
2023-04-12T17:09:01.617Z,3.03
2023-04-12T17:11:30.220Z,2.40
2023-04-12T17:13:59.827Z,2.70
2023-04-12T17:16:29.741Z,2.50
2023-04-12T17:18:57.783Z,3.13
2023-04-12T17:21:45.781Z,2.77
2023-04-12T17:24:13.261Z,3.00
2023-04-12T17:26:41.781Z,2.50
2023-04-12T17:29:10.532Z,2.90
2023-04-12T17:31:47.690Z,2.43
2023-04-12T17:34:18.443Z,2.20
2023-04-12T17:36:47.949Z,2.97
2023-04-12T17:39:17.495Z,2.53
2023-04-12T17:41:54.897Z,2.47
2023-04-12T17:44:24.579Z,2.47
2023-04-12T17:46:54.374Z,2.40
2023-04-12T17:49:23.409Z,2.27
2023-04-12T17:51:51.914Z,2.70
2023-04-12T17:54:21.754Z,2.33
2023-04-12T17:56:54.268Z,2.47
2023-04-12T17:59:24.794Z,3.30
2023-04-12T18:01:54.831Z,2.77
2023-04-12T18:04:25.898Z,3.73
2023-04-12T18:06:55.667Z,3.17
2023-04-12T18:09:24.498Z,3.23
2023-04-12T18:11:54.251Z,3.80
2023-04-12T18:14:29.918Z,3.97
2023-04-12T18:17:00.508Z,4.07
2023-04-12T18:19:31.987Z,4.20
2023-04-12T18:22:00.799Z,2.90
2023-04-12T18:24:29.366Z,3.97
2023-04-12T18:27:01.021Z,3.80
2023-04-12T18:29:28.389Z,3.80
2023-04-12T18:31:58.752Z,3.10
2023-04-12T18:34:37.947Z,3.27
2023-04-12T18:37:07.687Z,3.23
2023-04-12T18:39:38.358Z,3.20
2023-04-12T18:42:07.612Z,3.40
2023-04-12T18:44:38.205Z,2.53
2023-04-12T18:47:07.005Z,2.67
2023-04-12T18:49:36.225Z,3.23
2023-04-12T18:52:05.210Z,2.93
2023-04-12T18:54:33.290Z,3.30
2023-04-12T18:57:02.297Z,3.13
2023-04-12T18:59:31.386Z,3.70
2023-04-12T19:02:00.234Z,2.90
2023-04-12T19:04:27.966Z,3.47
2023-04-12T19:07:00.016Z,3.20
2023-04-12T19:09:28.719Z,3.57
2023-04-12T19:11:57.818Z,2.70
2023-04-12T19:14:26.143Z,2.27
2023-04-12T19:16:57.208Z,3.03
2023-04-12T19:19:26.166Z,3.20
2023-04-12T19:22:03.218Z,3.27
2023-04-12T19:24:32.622Z,2.80
2023-04-12T19:27:01.894Z,3.90
2023-04-12T19:29:30.515Z,3.60
2023-04-12T19:31:59.450Z,4.97
2023-04-12T19:34:30.698Z,4.43
2023-04-12T19:37:01.000Z,4.67
2023-04-12T19:39:30.444Z,4.30
2023-04-12T19:42:00.461Z,4.00
2023-04-12T19:44:31.133Z,3.63
2023-04-12T19:47:03.836Z,4.10
2023-04-12T19:49:36.916Z,3.97
2023-04-12T19:52:05.722Z,3.70
2023-04-12T19:54:36.231Z,4.40
2023-04-12T19:57:06.701Z,4.30
2023-04-12T19:59:59.270Z,3.30
2023-04-12T20:02:29.419Z,3.70
2023-04-12T20:04:58.750Z,4.03
2023-04-12T20:07:26.915Z,4.13
2023-04-12T20:09:55.864Z,3.30
2023-04-12T20:12:24.387Z,4.03
2023-04-12T20:14:54.582Z,4.07
2023-04-12T20:17:24.757Z,4.23
2023-04-12T20:19:55.348Z,3.93
2023-04-12T20:22:26.672Z,4.20
2023-04-12T20:24:54.636Z,4.50
2023-04-12T20:27:50.260Z,4.17
2023-04-12T20:30:19.201Z,4.00
2023-04-12T20:32:53.110Z,4.23
2023-04-12T20:35:23.937Z,3.63
2023-04-12T20:37:54.136Z,4.13
2023-04-12T20:40:27.786Z,3.93
2023-04-12T20:42:58.323Z,4.03
2023-04-12T20:45:28.581Z,3.93
2023-04-12T20:47:58.800Z,4.43
2023-04-12T20:50:26.875Z,4.20
2023-04-12T20:52:56.589Z,3.60
2023-04-12T20:55:36.599Z,3.97
2023-04-12T20:58:07.628Z,4.37
2023-04-12T21:00:38.769Z,3.83
2023-04-12T21:03:06.533Z,3.90
2023-04-12T21:05:34.557Z,4.23
2023-04-12T21:08:03.013Z,4.67
2023-04-12T21:10:31.093Z,4.90
2023-04-12T21:13:02.617Z,4.57
2023-04-12T21:15:33.338Z,4.10
2023-04-12T21:18:04.877Z,3.97
2023-04-12T21:20:36.251Z,3.80
2023-04-12T21:23:07.291Z,3.93
2023-04-12T21:25:36.962Z,4.10
2023-04-12T21:28:09.317Z,4.00
2023-04-12T21:30:36.933Z,3.57
2023-04-12T21:33:13.150Z,4.23
2023-04-12T21:35:42.978Z,3.90
2023-04-12T21:38:12.364Z,4.33
2023-04-12T21:40:40.746Z,4.60
2023-04-12T21:43:08.845Z,4.10
2023-04-12T21:45:37.430Z,4.77
2023-04-12T21:48:09.666Z,6.40
2023-04-12T21:50:39.624Z,4.40
2023-04-12T21:53:09.309Z,5.07
2023-04-12T21:55:39.554Z,4.77
2023-04-12T21:58:10.061Z,4.20
2023-04-12T22:00:39.859Z,4.47
2023-04-12T22:03:09.137Z,5.27
2023-04-12T22:05:41.186Z,4.20
2023-04-12T22:08:12.570Z,4.40
2023-04-12T22:10:41.381Z,4.47
2023-04-12T22:13:17.890Z,4.30
2023-04-12T22:15:55.067Z,4.50
2023-04-12T22:18:24.582Z,4.60
2023-04-12T22:20:53.077Z,4.47
2023-04-12T22:23:29.786Z,4.33
2023-04-12T22:26:07.784Z,4.73
2023-04-12T22:28:38.403Z,4.27
2023-04-12T22:31:10.641Z,4.57
2023-04-12T22:36:40.741Z,4.20
2023-04-12T22:39:16.045Z,3.87
2023-04-12T22:41:45.718Z,3.77
2023-04-12T22:44:13.931Z,3.90
2023-04-12T22:46:50.223Z,4.10
2023-04-12T22:49:22.009Z,4.10
2023-04-12T22:51:50.795Z,3.90
2023-04-12T22:54:35.002Z,3.90
2023-04-12T22:57:04.711Z,3.40
2023-04-12T22:59:34.582Z,4.33
2023-04-12T23:02:04.695Z,3.50
2023-04-12T23:04:34.806Z,3.90
2023-04-12T23:07:03.175Z,3.57
2023-04-12T23:09:36.481Z,3.77
2023-04-12T23:12:05.224Z,3.60
2023-04-12T23:14:33.085Z,3.50
2023-04-12T23:17:03.604Z,3.73
2023-04-12T23:19:33.904Z,3.70
2023-04-12T23:22:03.812Z,3.67
2023-04-12T23:24:41.533Z,3.43
2023-04-12T23:27:09.899Z,3.40
2023-04-12T23:29:39.100Z,3.90
2023-04-12T23:32:07.539Z,4.07
2023-04-12T23:34:35.716Z,3.57
2023-04-12T23:37:04.513Z,4.13
2023-04-12T23:39:32.937Z,3.67
2023-04-12T23:42:03.937Z,3.53
2023-04-12T23:44:33.439Z,3.77
2023-04-12T23:47:01.658Z,3.67
2023-04-12T23:49:33.998Z,3.80
2023-04-12T23:52:02.398Z,3.60
2023-04-12T23:54:39.024Z,3.60
2023-04-12T23:57:07.499Z,4.10
2023-04-12T23:59:34.897Z,3.40
